sensor_id;sensor_type;location;lat;lon;timestamp;P1;durP1;ratioP1;P2;durP2;ratioP2
34639;SDS011;22600;48.186;11.526;2022-08-03T00:01:26;8.73;;;5.68;;
34639;SDS011;22600;48.186;11.526;2022-08-03T00:03:52;7.57;;;5.18;;
34639;SDS011;22600;48.186;11.526;2022-08-03T00:06:17;8.85;;;5.50;;
34639;SDS011;22600;48.186;11.526;2022-08-03T00:08:43;9.18;;;5.53;;
34639;SDS011;22600;48.186;11.526;2022-08-03T00:11:09;8.15;;;5.50;;
34639;SDS011;22600;48.186;11.526;2022-08-03T00:13:34;7.07;;;4.80;;
34639;SDS011;22600;48.186;11.526;2022-08-03T00:16:00;7.55;;;5.05;;
34639;SDS011;22600;48.186;11.526;2022-08-03T00:18:25;7.88;;;5.18;;
34639;SDS011;22600;48.186;11.526;2022-08-03T00:20:51;7.10;;;4.85;;
34639;SDS011;22600;48.186;11.526;2022-08-03T00:23:16;9.70;;;4.75;;
34639;SDS011;22600;48.186;11.526;2022-08-03T00:25:42;7.20;;;5.10;;
34639;SDS011;22600;48.186;11.526;2022-08-03T00:28:08;8.23;;;4.72;;
34639;SDS011;22600;48.186;11.526;2022-08-03T00:30:33;6.30;;;4.68;;
34639;SDS011;22600;48.186;11.526;2022-08-03T00:32:59;6.50;;;4.72;;
34639;SDS011;22600;48.186;11.526;2022-08-03T00:35:25;7.53;;;4.60;;
34639;SDS011;22600;48.186;11.526;2022-08-03T00:37:52;7.93;;;4.70;;
34639;SDS011;22600;48.186;11.526;2022-08-03T00:40:18;8.82;;;4.75;;
34639;SDS011;22600;48.186;11.526;2022-08-03T00:47:40;7.22;;;4.47;;
34639;SDS011;22600;48.186;11.526;2022-08-03T00:50:06;7.35;;;4.32;;
34639;SDS011;22600;48.186;11.526;2022-08-03T00:52:33;8.35;;;4.20;;
34639;SDS011;22600;48.186;11.526;2022-08-03T00:54:59;7.30;;;4.57;;
34639;SDS011;22600;48.186;11.526;2022-08-03T00:57:26;4.95;;;3.83;;
34639;SDS011;22600;48.186;11.526;2022-08-03T00:59:53;6.05;;;4.13;;
34639;SDS011;22600;48.186;11.526;2022-08-03T01:02:20;6.35;;;4.03;;
34639;SDS011;22600;48.186;11.526;2022-08-03T01:04:45;6.65;;;4.18;;
34639;SDS011;22600;48.186;11.526;2022-08-03T01:07:14;6.90;;;3.92;;
34639;SDS011;22600;48.186;11.526;2022-08-03T01:12:37;4.97;;;3.65;;
34639;SDS011;22600;48.186;11.526;2022-08-03T01:20:39;5.90;;;3.75;;
34639;SDS011;22600;48.186;11.526;2022-08-03T01:23:23;4.97;;;3.70;;
34639;SDS011;22600;48.186;11.526;2022-08-03T01:26:15;6.50;;;3.45;;
34639;SDS011;22600;48.186;11.526;2022-08-03T01:29:08;5.45;;;3.45;;
34639;SDS011;22600;48.186;11.526;2022-08-03T01:31:58;5.43;;;3.35;;
34639;SDS011;22600;48.186;11.526;2022-08-03T01:34:31;5.80;;;3.45;;
34639;SDS011;22600;48.186;11.526;2022-08-03T01:37:04;6.55;;;3.70;;
34639;SDS011;22600;48.186;11.526;2022-08-03T01:39:31;4.93;;;3.58;;
34639;SDS011;22600;48.186;11.526;2022-08-03T01:42:00;5.03;;;3.25;;
34639;SDS011;22600;48.186;11.526;2022-08-03T01:44:30;5.65;;;3.35;;
34639;SDS011;22600;48.186;11.526;2022-08-03T01:47:00;4.70;;;3.40;;
34639;SDS011;22600;48.186;11.526;2022-08-03T01:49:31;4.40;;;3.38;;
34639;SDS011;22600;48.186;11.526;2022-08-03T01:52:04;4.25;;;3.15;;
34639;SDS011;22600;48.186;11.526;2022-08-03T01:54:32;4.95;;;3.20;;
34639;SDS011;22600;48.186;11.526;2022-08-03T01:57:05;4.32;;;3.10;;
34639;SDS011;22600;48.186;11.526;2022-08-03T01:59:33;4.25;;;3.10;;
34639;SDS011;22600;48.186;11.526;2022-08-03T02:02:00;4.00;;;2.83;;
34639;SDS011;22600;48.186;11.526;2022-08-03T02:04:28;5.43;;;3.03;;
34639;SDS011;22600;48.186;11.526;2022-08-03T02:06:54;4.45;;;2.80;;
34639;SDS011;22600;48.186;11.526;2022-08-03T02:09:22;4.15;;;2.80;;
34639;SDS011;22600;48.186;11.526;2022-08-03T02:11:50;4.78;;;2.88;;
34639;SDS011;22600;48.186;11.526;2022-08-03T02:14:16;4.93;;;3.00;;
34639;SDS011;22600;48.186;11.526;2022-08-03T02:16:43;3.10;;;2.55;;
34639;SDS011;22600;48.186;11.526;2022-08-03T02:19:10;4.28;;;2.65;;
34639;SDS011;22600;48.186;11.526;2022-08-03T02:21:36;4.72;;;2.80;;
34639;SDS011;22600;48.186;11.526;2022-08-03T02:24:03;4.25;;;2.60;;
34639;SDS011;22600;48.186;11.526;2022-08-03T02:26:30;3.92;;;2.47;;
34639;SDS011;22600;48.186;11.526;2022-08-03T02:29:01;3.47;;;2.50;;
34639;SDS011;22600;48.186;11.526;2022-08-03T02:31:32;3.67;;;2.88;;
34639;SDS011;22600;48.186;11.526;2022-08-03T02:34:02;4.18;;;2.60;;
34639;SDS011;22600;48.186;11.526;2022-08-03T02:36:33;3.50;;;2.40;;
34639;SDS011;22600;48.186;11.526;2022-08-03T02:39:01;4.32;;;2.70;;
34639;SDS011;22600;48.186;11.526;2022-08-03T02:41:34;3.58;;;2.55;;
34639;SDS011;22600;48.186;11.526;2022-08-03T02:44:08;3.38;;;2.50;;
34639;SDS011;22600;48.186;11.526;2022-08-03T02:46:40;3.30;;;2.67;;
34639;SDS011;22600;48.186;11.526;2022-08-03T02:49:09;4.82;;;2.40;;
34639;SDS011;22600;48.186;11.526;2022-08-03T02:51:37;4.22;;;2.78;;
34639;SDS011;22600;48.186;11.526;2022-08-03T02:54:04;3.38;;;2.60;;
34639;SDS011;22600;48.186;11.526;2022-08-03T02:56:32;4.20;;;2.65;;
34639;SDS011;22600;48.186;11.526;2022-08-03T02:58:59;5.03;;;2.70;;
34639;SDS011;22600;48.186;11.526;2022-08-03T03:01:26;4.13;;;2.72;;
34639;SDS011;22600;48.186;11.526;2022-08-03T03:03:52;4.20;;;2.55;;
34639;SDS011;22600;48.186;11.526;2022-08-03T03:06:20;3.53;;;2.50;;
34639;SDS011;22600;48.186;11.526;2022-08-03T03:08:48;4.20;;;2.47;;
34639;SDS011;22600;48.186;11.526;2022-08-03T03:11:16;3.88;;;2.72;;
34639;SDS011;22600;48.186;11.526;2022-08-03T03:13:43;4.35;;;2.80;;
34639;SDS011;22600;48.186;11.526;2022-08-03T03:16:11;3.30;;;2.35;;
34639;SDS011;22600;48.186;11.526;2022-08-03T03:18:37;2.85;;;2.45;;
34639;SDS011;22600;48.186;11.526;2022-08-03T03:21:04;3.90;;;2.80;;
34639;SDS011;22600;48.186;11.526;2022-08-03T03:23:34;3.17;;;2.33;;
34639;SDS011;22600;48.186;11.526;2022-08-03T03:26:01;3.58;;;2.20;;
34639;SDS011;22600;48.186;11.526;2022-08-03T03:28:27;3.13;;;2.08;;
34639;SDS011;22600;48.186;11.526;2022-08-03T03:30:54;4.40;;;2.40;;
34639;SDS011;22600;48.186;11.526;2022-08-03T03:33:20;2.85;;;2.22;;
34639;SDS011;22600;48.186;11.526;2022-08-03T03:35:46;3.17;;;2.30;;
34639;SDS011;22600;48.186;11.526;2022-08-03T03:38:12;3.95;;;2.65;;
34639;SDS011;22600;48.186;11.526;2022-08-03T03:40:38;4.18;;;2.47;;
34639;SDS011;22600;48.186;11.526;2022-08-03T03:43:08;3.53;;;2.60;;
34639;SDS011;22600;48.186;11.526;2022-08-03T03:45:34;4.20;;;2.78;;
34639;SDS011;22600;48.186;11.526;2022-08-03T03:48:00;3.58;;;2.85;;
34639;SDS011;22600;48.186;11.526;2022-08-03T03:50:28;4.13;;;2.90;;
34639;SDS011;22600;48.186;11.526;2022-08-03T03:52:58;4.13;;;3.03;;
34639;SDS011;22600;48.186;11.526;2022-08-03T03:55:23;6.95;;;3.10;;
34639;SDS011;22600;48.186;11.526;2022-08-03T03:57:49;4.07;;;2.83;;
34639;SDS011;22600;48.186;11.526;2022-08-03T04:00:15;4.45;;;3.08;;
34639;SDS011;22600;48.186;11.526;2022-08-03T04:02:43;3.80;;;2.83;;
34639;SDS011;22600;48.186;11.526;2022-08-03T04:05:09;5.05;;;2.97;;
34639;SDS011;22600;48.186;11.526;2022-08-03T04:07:58;4.03;;;3.05;;
34639;SDS011;22600;48.186;11.526;2022-08-03T04:10:42;4.97;;;3.55;;
34639;SDS011;22600;48.186;11.526;2022-08-03T04:13:24;4.20;;;3.10;;
34639;SDS011;22600;48.186;11.526;2022-08-03T04:15:55;4.63;;;3.38;;
34639;SDS011;22600;48.186;11.526;2022-08-03T04:18:23;4.53;;;3.45;;
34639;SDS011;22600;48.186;11.526;2022-08-03T04:20:51;6.22;;;3.65;;
34639;SDS011;22600;48.186;11.526;2022-08-03T04:23:20;4.10;;;3.05;;
34639;SDS011;22600;48.186;11.526;2022-08-03T04:25:49;4.68;;;3.42;;
34639;SDS011;22600;48.186;11.526;2022-08-03T04:28:16;5.07;;;3.25;;
34639;SDS011;22600;48.186;11.526;2022-08-03T04:30:44;4.07;;;2.92;;
34639;SDS011;22600;48.186;11.526;2022-08-03T04:33:13;4.35;;;3.15;;
34639;SDS011;22600;48.186;11.526;2022-08-03T04:35:40;4.60;;;2.85;;
34639;SDS011;22600;48.186;11.526;2022-08-03T04:38:07;4.25;;;3.00;;
34639;SDS011;22600;48.186;11.526;2022-08-03T04:40:35;5.03;;;2.75;;
34639;SDS011;22600;48.186;11.526;2022-08-03T04:43:03;5.70;;;3.40;;
34639;SDS011;22600;48.186;11.526;2022-08-03T04:45:30;3.75;;;2.85;;
34639;SDS011;22600;48.186;11.526;2022-08-03T04:47:56;5.00;;;3.00;;
34639;SDS011;22600;48.186;11.526;2022-08-03T04:50:22;5.00;;;3.08;;
34639;SDS011;22600;48.186;11.526;2022-08-03T04:52:49;5.35;;;3.00;;
34639;SDS011;22600;48.186;11.526;2022-08-03T04:55:27;4.70;;;2.80;;
34639;SDS011;22600;48.186;11.526;2022-08-03T04:57:54;4.82;;;3.28;;
34639;SDS011;22600;48.186;11.526;2022-08-03T05:00:20;4.25;;;2.92;;
34639;SDS011;22600;48.186;11.526;2022-08-03T05:02:46;3.55;;;2.70;;
34639;SDS011;22600;48.186;11.526;2022-08-03T05:05:11;5.20;;;3.20;;
34639;SDS011;22600;48.186;11.526;2022-08-03T05:07:37;4.10;;;2.95;;
34639;SDS011;22600;48.186;11.526;2022-08-03T05:10:03;4.78;;;3.10;;
34639;SDS011;22600;48.186;11.526;2022-08-03T05:12:31;4.50;;;2.90;;
34639;SDS011;22600;48.186;11.526;2022-08-03T05:14:56;4.55;;;2.90;;
34639;SDS011;22600;48.186;11.526;2022-08-03T05:17:22;4.53;;;3.08;;
34639;SDS011;22600;48.186;11.526;2022-08-03T05:19:47;4.20;;;3.05;;
34639;SDS011;22600;48.186;11.526;2022-08-03T05:22:13;5.28;;;3.22;;
34639;SDS011;22600;48.186;11.526;2022-08-03T05:24:38;4.85;;;3.20;;
34639;SDS011;22600;48.186;11.526;2022-08-03T05:27:04;5.57;;;3.50;;
34639;SDS011;22600;48.186;11.526;2022-08-03T05:29:29;4.40;;;2.80;;
34639;SDS011;22600;48.186;11.526;2022-08-03T05:31:55;5.97;;;3.15;;
34639;SDS011;22600;48.186;11.526;2022-08-03T05:34:20;4.45;;;3.28;;
34639;SDS011;22600;48.186;11.526;2022-08-03T05:36:46;4.25;;;2.95;;
34639;SDS011;22600;48.186;11.526;2022-08-03T05:39:11;4.90;;;2.97;;
34639;SDS011;22600;48.186;11.526;2022-08-03T05:41:37;4.43;;;3.10;;
34639;SDS011;22600;48.186;11.526;2022-08-03T05:44:03;4.43;;;2.85;;
34639;SDS011;22600;48.186;11.526;2022-08-03T05:46:28;4.43;;;2.83;;
34639;SDS011;22600;48.186;11.526;2022-08-03T05:48:54;4.63;;;2.95;;
34639;SDS011;22600;48.186;11.526;2022-08-03T05:51:19;4.57;;;2.67;;
34639;SDS011;22600;48.186;11.526;2022-08-03T05:53:45;5.35;;;2.95;;
34639;SDS011;22600;48.186;11.526;2022-08-03T05:56:11;5.60;;;2.95;;
34639;SDS011;22600;48.186;11.526;2022-08-03T05:58:36;4.50;;;2.72;;
34639;SDS011;22600;48.186;11.526;2022-08-03T06:01:02;5.00;;;2.72;;
34639;SDS011;22600;48.186;11.526;2022-08-03T06:03:27;4.05;;;2.88;;
34639;SDS011;22600;48.186;11.526;2022-08-03T06:05:53;4.97;;;2.58;;
34639;SDS011;22600;48.186;11.526;2022-08-03T06:08:20;3.90;;;2.83;;
34639;SDS011;22600;48.186;11.526;2022-08-03T06:10:46;4.20;;;2.65;;
34639;SDS011;22600;48.186;11.526;2022-08-03T06:13:12;3.90;;;2.75;;
34639;SDS011;22600;48.186;11.526;2022-08-03T06:15:38;3.45;;;2.65;;
34639;SDS011;22600;48.186;11.526;2022-08-03T06:18:03;4.55;;;2.67;;
34639;SDS011;22600;48.186;11.526;2022-08-03T06:20:29;4.10;;;2.63;;
34639;SDS011;22600;48.186;11.526;2022-08-03T06:22:55;3.65;;;2.63;;
34639;SDS011;22600;48.186;11.526;2022-08-03T06:25:21;4.10;;;2.45;;
34639;SDS011;22600;48.186;11.526;2022-08-03T06:27:46;6.45;;;2.60;;
34639;SDS011;22600;48.186;11.526;2022-08-03T06:30:12;6.07;;;2.80;;
34639;SDS011;22600;48.186;11.526;2022-08-03T06:32:38;4.80;;;2.60;;
34639;SDS011;22600;48.186;11.526;2022-08-03T06:35:05;6.50;;;2.72;;
34639;SDS011;22600;48.186;11.526;2022-08-03T06:37:40;4.38;;;2.50;;
34639;SDS011;22600;48.186;11.526;2022-08-03T06:40:10;5.28;;;2.55;;
34639;SDS011;22600;48.186;11.526;2022-08-03T06:42:36;3.08;;;2.40;;
34639;SDS011;22600;48.186;11.526;2022-08-03T06:45:02;4.03;;;2.70;;
34639;SDS011;22600;48.186;11.526;2022-08-03T06:47:28;5.32;;;2.60;;
34639;SDS011;22600;48.186;11.526;2022-08-03T06:49:53;5.25;;;2.40;;
34639;SDS011;22600;48.186;11.526;2022-08-03T06:52:19;27.75;;;5.53;;
34639;SDS011;22600;48.186;11.526;2022-08-03T06:54:44;6.53;;;2.70;;
34639;SDS011;22600;48.186;11.526;2022-08-03T06:57:10;6.65;;;2.72;;
34639;SDS011;22600;48.186;11.526;2022-08-03T06:59:36;4.50;;;2.67;;
34639;SDS011;22600;48.186;11.526;2022-08-03T07:02:02;6.22;;;2.70;;
34639;SDS011;22600;48.186;11.526;2022-08-03T07:04:28;8.80;;;2.70;;
34639;SDS011;22600;48.186;11.526;2022-08-03T07:06:54;5.60;;;2.65;;
34639;SDS011;22600;48.186;11.526;2022-08-03T07:09:19;4.65;;;2.90;;
34639;SDS011;22600;48.186;11.526;2022-08-03T07:11:45;3.67;;;2.42;;
34639;SDS011;22600;48.186;11.526;2022-08-03T07:14:10;4.78;;;2.80;;
34639;SDS011;22600;48.186;11.526;2022-08-03T07:16:36;4.75;;;2.90;;
34639;SDS011;22600;48.186;11.526;2022-08-03T07:19:01;5.60;;;2.75;;
34639;SDS011;22600;48.186;11.526;2022-08-03T07:21:27;3.53;;;2.40;;
34639;SDS011;22600;48.186;11.526;2022-08-03T07:23:52;5.18;;;2.47;;
34639;SDS011;22600;48.186;11.526;2022-08-03T07:26:18;5.22;;;2.70;;
34639;SDS011;22600;48.186;11.526;2022-08-03T07:28:44;5.05;;;2.83;;
34639;SDS011;22600;48.186;11.526;2022-08-03T07:31:09;5.40;;;2.60;;
34639;SDS011;22600;48.186;11.526;2022-08-03T07:33:35;4.88;;;2.65;;
34639;SDS011;22600;48.186;11.526;2022-08-03T07:36:00;4.85;;;3.25;;
34639;SDS011;22600;48.186;11.526;2022-08-03T07:38:26;5.28;;;2.95;;
34639;SDS011;22600;48.186;11.526;2022-08-03T07:40:52;4.85;;;3.00;;
34639;SDS011;22600;48.186;11.526;2022-08-03T07:43:17;6.13;;;3.17;;
34639;SDS011;22600;48.186;11.526;2022-08-03T07:45:43;6.18;;;3.35;;
34639;SDS011;22600;48.186;11.526;2022-08-03T07:48:09;6.95;;;2.97;;
34639;SDS011;22600;48.186;11.526;2022-08-03T07:50:34;5.03;;;2.80;;
34639;SDS011;22600;48.186;11.526;2022-08-03T07:53:00;5.22;;;3.03;;
34639;SDS011;22600;48.186;11.526;2022-08-03T07:55:25;4.47;;;2.78;;
34639;SDS011;22600;48.186;11.526;2022-08-03T07:57:59;8.07;;;3.10;;
34639;SDS011;22600;48.186;11.526;2022-08-03T08:00:25;6.30;;;3.20;;
34639;SDS011;22600;48.186;11.526;2022-08-03T08:02:51;8.98;;;2.80;;
34639;SDS011;22600;48.186;11.526;2022-08-03T08:05:16;6.45;;;3.08;;
34639;SDS011;22600;48.186;11.526;2022-08-03T08:07:42;4.22;;;2.70;;
34639;SDS011;22600;48.186;11.526;2022-08-03T08:10:08;4.53;;;2.60;;
34639;SDS011;22600;48.186;11.526;2022-08-03T08:12:34;5.60;;;2.75;;
34639;SDS011;22600;48.186;11.526;2022-08-03T08:15:00;3.67;;;2.80;;
34639;SDS011;22600;48.186;11.526;2022-08-03T08:17:26;4.55;;;2.60;;
34639;SDS011;22600;48.186;11.526;2022-08-03T08:19:51;4.97;;;2.60;;
34639;SDS011;22600;48.186;11.526;2022-08-03T08:22:17;4.32;;;2.35;;
34639;SDS011;22600;48.186;11.526;2022-08-03T08:24:43;4.63;;;2.58;;
34639;SDS011;22600;48.186;11.526;2022-08-03T08:27:09;3.78;;;2.50;;
34639;SDS011;22600;48.186;11.526;2022-08-03T08:29:36;5.30;;;2.58;;
34639;SDS011;22600;48.186;11.526;2022-08-03T08:32:02;2.95;;;2.10;;
34639;SDS011;22600;48.186;11.526;2022-08-03T08:34:28;4.47;;;2.50;;
34639;SDS011;22600;48.186;11.526;2022-08-03T08:36:53;5.75;;;2.30;;
34639;SDS011;22600;48.186;11.526;2022-08-03T08:39:19;3.28;;;2.25;;
34639;SDS011;22600;48.186;11.526;2022-08-03T08:41:44;3.78;;;2.20;;
34639;SDS011;22600;48.186;11.526;2022-08-03T08:44:10;3.10;;;2.17;;
34639;SDS011;22600;48.186;11.526;2022-08-03T08:46:35;4.63;;;2.25;;
34639;SDS011;22600;48.186;11.526;2022-08-03T08:49:02;4.63;;;2.10;;
34639;SDS011;22600;48.186;11.526;2022-08-03T08:51:30;4.72;;;2.13;;
34639;SDS011;22600;48.186;11.526;2022-08-03T08:54:00;5.20;;;2.20;;
34639;SDS011;22600;48.186;11.526;2022-08-03T08:56:27;3.53;;;2.13;;
34639;SDS011;22600;48.186;11.526;2022-08-03T08:58:59;4.30;;;2.20;;
34639;SDS011;22600;48.186;11.526;2022-08-03T09:01:25;3.45;;;2.20;;
34639;SDS011;22600;48.186;11.526;2022-08-03T09:03:52;3.60;;;2.20;;
34639;SDS011;22600;48.186;11.526;2022-08-03T09:06:18;4.57;;;2.15;;
34639;SDS011;22600;48.186;11.526;2022-08-03T09:08:44;4.57;;;2.08;;
34639;SDS011;22600;48.186;11.526;2022-08-03T09:11:10;3.63;;;2.08;;
34639;SDS011;22600;48.186;11.526;2022-08-03T09:13:36;4.63;;;2.20;;
34639;SDS011;22600;48.186;11.526;2022-08-03T09:16:09;2.42;;;1.95;;
34639;SDS011;22600;48.186;11.526;2022-08-03T09:18:38;3.13;;;1.90;;
34639;SDS011;22600;48.186;11.526;2022-08-03T09:23:51;3.50;;;2.22;;
34639;SDS011;22600;48.186;11.526;2022-08-03T09:26:24;3.53;;;1.90;;
34639;SDS011;22600;48.186;11.526;2022-08-03T09:28:55;3.47;;;1.95;;
34639;SDS011;22600;48.186;11.526;2022-08-03T09:33:55;3.38;;;2.10;;
34639;SDS011;22600;48.186;11.526;2022-08-03T09:39:07;3.25;;;2.20;;
34639;SDS011;22600;48.186;11.526;2022-08-03T09:41:38;3.05;;;1.80;;
34639;SDS011;22600;48.186;11.526;2022-08-03T09:44:05;3.90;;;1.73;;
34639;SDS011;22600;48.186;11.526;2022-08-03T09:46:30;2.63;;;2.20;;
34639;SDS011;22600;48.186;11.526;2022-08-03T09:49:12;2.70;;;2.10;;
34639;SDS011;22600;48.186;11.526;2022-08-03T09:51:38;3.10;;;2.00;;
34639;SDS011;22600;48.186;11.526;2022-08-03T09:54:04;3.13;;;2.15;;
34639;SDS011;22600;48.186;11.526;2022-08-03T09:56:37;3.72;;;1.90;;
34639;SDS011;22600;48.186;11.526;2022-08-03T09:59:08;3.58;;;2.20;;
34639;SDS011;22600;48.186;11.526;2022-08-03T10:01:35;2.75;;;1.90;;
34639;SDS011;22600;48.186;11.526;2022-08-03T10:04:01;2.80;;;1.95;;
34639;SDS011;22600;48.186;11.526;2022-08-03T10:06:27;2.58;;;1.83;;
34639;SDS011;22600;48.186;11.526;2022-08-03T10:11:41;3.08;;;1.85;;
34639;SDS011;22600;48.186;11.526;2022-08-03T10:14:08;4.68;;;2.05;;
34639;SDS011;22600;48.186;11.526;2022-08-03T10:16:36;4.18;;;2.15;;
34639;SDS011;22600;48.186;11.526;2022-08-03T10:19:05;2.65;;;1.70;;
34639;SDS011;22600;48.186;11.526;2022-08-03T10:21:33;5.55;;;2.10;;
34639;SDS011;22600;48.186;11.526;2022-08-03T10:24:03;3.22;;;1.80;;
34639;SDS011;22600;48.186;11.526;2022-08-03T10:26:34;5.45;;;2.08;;
34639;SDS011;22600;48.186;11.526;2022-08-03T10:29:03;2.67;;;1.73;;
34639;SDS011;22600;48.186;11.526;2022-08-03T10:31:39;2.30;;;1.80;;
34639;SDS011;22600;48.186;11.526;2022-08-03T10:34:10;3.92;;;1.80;;
34639;SDS011;22600;48.186;11.526;2022-08-03T10:36:41;4.10;;;2.15;;
34639;SDS011;22600;48.186;11.526;2022-08-03T10:39:08;3.05;;;1.98;;
34639;SDS011;22600;48.186;11.526;2022-08-03T10:41:38;3.97;;;1.98;;
34639;SDS011;22600;48.186;11.526;2022-08-03T10:46:33;3.13;;;1.95;;
34639;SDS011;22600;48.186;11.526;2022-08-03T10:49:02;4.20;;;2.00;;
34639;SDS011;22600;48.186;11.526;2022-08-03T10:51:29;3.33;;;1.73;;
34639;SDS011;22600;48.186;11.526;2022-08-03T10:53:56;2.70;;;1.70;;
34639;SDS011;22600;48.186;11.526;2022-08-03T10:59:14;2.60;;;1.70;;
34639;SDS011;22600;48.186;11.526;2022-08-03T11:01:48;2.58;;;2.20;;
34639;SDS011;22600;48.186;11.526;2022-08-03T11:04:17;3.10;;;1.60;;
34639;SDS011;22600;48.186;11.526;2022-08-03T11:06:44;3.55;;;1.80;;
34639;SDS011;22600;48.186;11.526;2022-08-03T11:11:40;3.83;;;1.50;;
34639;SDS011;22600;48.186;11.526;2022-08-03T11:14:20;2.13;;;1.60;;
34639;SDS011;22600;48.186;11.526;2022-08-03T11:16:50;2.00;;;1.60;;
34639;SDS011;22600;48.186;11.526;2022-08-03T11:19:45;2.15;;;1.80;;
34639;SDS011;22600;48.186;11.526;2022-08-03T11:22:15;3.85;;;1.75;;
34639;SDS011;22600;48.186;11.526;2022-08-03T11:24:55;4.32;;;1.52;;
34639;SDS011;22600;48.186;11.526;2022-08-03T11:30:39;2.60;;;1.92;;
34639;SDS011;22600;48.186;11.526;2022-08-03T11:38:00;3.42;;;1.77;;
34639;SDS011;22600;48.186;11.526;2022-08-03T11:40:43;2.00;;;1.65;;
34639;SDS011;22600;48.186;11.526;2022-08-03T11:48:26;3.22;;;1.60;;
34639;SDS011;22600;48.186;11.526;2022-08-03T11:51:05;4.38;;;1.80;;
34639;SDS011;22600;48.186;11.526;2022-08-03T11:53:42;3.20;;;1.50;;
34639;SDS011;22600;48.186;11.526;2022-08-03T11:56:08;3.08;;;1.70;;
34639;SDS011;22600;48.186;11.526;2022-08-03T11:58:33;6.45;;;2.20;;
34639;SDS011;22600;48.186;11.526;2022-08-03T12:01:03;4.32;;;2.05;;
34639;SDS011;22600;48.186;11.526;2022-08-03T12:03:31;2.67;;;2.22;;
34639;SDS011;22600;48.186;11.526;2022-08-03T12:05:58;2.00;;;1.60;;
34639;SDS011;22600;48.186;11.526;2022-08-03T12:10:51;1.90;;;1.60;;
34639;SDS011;22600;48.186;11.526;2022-08-03T12:13:17;2.58;;;1.65;;
34639;SDS011;22600;48.186;11.526;2022-08-03T12:15:49;3.33;;;1.70;;
34639;SDS011;22600;48.186;11.526;2022-08-03T12:18:17;3.80;;;1.70;;
34639;SDS011;22600;48.186;11.526;2022-08-03T12:20:43;2.15;;;1.70;;
34639;SDS011;22600;48.186;11.526;2022-08-03T12:23:10;4.80;;;1.70;;
34639;SDS011;22600;48.186;11.526;2022-08-03T12:25:36;2.80;;;1.48;;
34639;SDS011;22600;48.186;11.526;2022-08-03T12:28:07;2.25;;;1.60;;
34639;SDS011;22600;48.186;11.526;2022-08-03T12:30:36;2.47;;;1.70;;
34639;SDS011;22600;48.186;11.526;2022-08-03T12:33:20;2.42;;;1.80;;
34639;SDS011;22600;48.186;11.526;2022-08-03T12:35:48;2.90;;;1.90;;
34639;SDS011;22600;48.186;11.526;2022-08-03T12:38:35;2.47;;;1.67;;
34639;SDS011;22600;48.186;11.526;2022-08-03T12:43:29;3.38;;;1.98;;
34639;SDS011;22600;48.186;11.526;2022-08-03T12:49:05;4.20;;;1.92;;
34639;SDS011;22600;48.186;11.526;2022-08-03T12:54:08;4.50;;;2.05;;
34639;SDS011;22600;48.186;11.526;2022-08-03T12:56:59;4.75;;;1.80;;
34639;SDS011;22600;48.186;11.526;2022-08-03T12:59:41;4.93;;;1.90;;
34639;SDS011;22600;48.186;11.526;2022-08-03T13:02:16;4.20;;;1.60;;
34639;SDS011;22600;48.186;11.526;2022-08-03T13:04:43;5.80;;;1.83;;
34639;SDS011;22600;48.186;11.526;2022-08-03T13:07:10;4.05;;;1.83;;
34639;SDS011;22600;48.186;11.526;2022-08-03T13:09:40;2.05;;;1.58;;
34639;SDS011;22600;48.186;11.526;2022-08-03T13:12:08;3.42;;;1.88;;
34639;SDS011;22600;48.186;11.526;2022-08-03T13:14:36;3.53;;;1.83;;
34639;SDS011;22600;48.186;11.526;2022-08-03T13:17:02;2.53;;;1.88;;
34639;SDS011;22600;48.186;11.526;2022-08-03T13:19:30;4.18;;;1.80;;
34639;SDS011;22600;48.186;11.526;2022-08-03T13:21:56;4.00;;;1.88;;
34639;SDS011;22600;48.186;11.526;2022-08-03T13:24:22;4.10;;;1.83;;
34639;SDS011;22600;48.186;11.526;2022-08-03T13:26:47;3.00;;;1.70;;
34639;SDS011;22600;48.186;11.526;2022-08-03T13:29:13;3.33;;;1.70;;
34639;SDS011;22600;48.186;11.526;2022-08-03T13:31:38;3.85;;;1.70;;
34639;SDS011;22600;48.186;11.526;2022-08-03T13:34:04;2.88;;;2.35;;
34639;SDS011;22600;48.186;11.526;2022-08-03T13:36:29;3.75;;;1.98;;
34639;SDS011;22600;48.186;11.526;2022-08-03T13:38:55;2.78;;;2.00;;
34639;SDS011;22600;48.186;11.526;2022-08-03T13:41:20;4.03;;;2.08;;
34639;SDS011;22600;48.186;11.526;2022-08-03T13:43:46;4.90;;;2.35;;
34639;SDS011;22600;48.186;11.526;2022-08-03T13:46:11;3.88;;;2.17;;
34639;SDS011;22600;48.186;11.526;2022-08-03T13:48:37;3.40;;;2.20;;
34639;SDS011;22600;48.186;11.526;2022-08-03T13:51:03;4.63;;;2.20;;
34639;SDS011;22600;48.186;11.526;2022-08-03T13:53:29;5.63;;;2.00;;
34639;SDS011;22600;48.186;11.526;2022-08-03T13:55:54;4.25;;;1.90;;
34639;SDS011;22600;48.186;11.526;2022-08-03T13:58:20;2.40;;;2.10;;
34639;SDS011;22600;48.186;11.526;2022-08-03T14:00:45;4.40;;;2.05;;
34639;SDS011;22600;48.186;11.526;2022-08-03T14:03:11;2.83;;;1.75;;
34639;SDS011;22600;48.186;11.526;2022-08-03T14:05:36;4.28;;;1.98;;
34639;SDS011;22600;48.186;11.526;2022-08-03T14:08:03;4.03;;;1.80;;
34639;SDS011;22600;48.186;11.526;2022-08-03T14:10:31;3.90;;;2.08;;
34639;SDS011;22600;48.186;11.526;2022-08-03T14:13:01;4.57;;;1.90;;
34639;SDS011;22600;48.186;11.526;2022-08-03T14:15:27;3.45;;;1.95;;
34639;SDS011;22600;48.186;11.526;2022-08-03T14:17:53;4.18;;;2.05;;
34639;SDS011;22600;48.186;11.526;2022-08-03T14:20:19;3.30;;;1.80;;
34639;SDS011;22600;48.186;11.526;2022-08-03T14:22:44;5.93;;;2.10;;
34639;SDS011;22600;48.186;11.526;2022-08-03T14:25:10;5.75;;;2.00;;
34639;SDS011;22600;48.186;11.526;2022-08-03T14:27:35;3.97;;;1.95;;
34639;SDS011;22600;48.186;11.526;2022-08-03T14:30:01;4.65;;;2.00;;
34639;SDS011;22600;48.186;11.526;2022-08-03T14:32:27;5.10;;;2.00;;
34639;SDS011;22600;48.186;11.526;2022-08-03T14:34:52;6.53;;;2.00;;
34639;SDS011;22600;48.186;11.526;2022-08-03T14:37:18;6.93;;;1.90;;
34639;SDS011;22600;48.186;11.526;2022-08-03T14:39:44;2.40;;;2.00;;
34639;SDS011;22600;48.186;11.526;2022-08-03T14:42:10;4.80;;;1.90;;
34639;SDS011;22600;48.186;11.526;2022-08-03T14:44:36;4.05;;;1.88;;
34639;SDS011;22600;48.186;11.526;2022-08-03T14:47:01;4.38;;;2.00;;
34639;SDS011;22600;48.186;11.526;2022-08-03T14:49:27;3.20;;;1.80;;
34639;SDS011;22600;48.186;11.526;2022-08-03T14:51:52;4.38;;;1.92;;
34639;SDS011;22600;48.186;11.526;2022-08-03T14:54:18;4.75;;;2.17;;
34639;SDS011;22600;48.186;11.526;2022-08-03T14:56:44;4.32;;;2.15;;
34639;SDS011;22600;48.186;11.526;2022-08-03T14:59:09;3.17;;;1.90;;
34639;SDS011;22600;48.186;11.526;2022-08-03T15:01:35;3.10;;;1.73;;
34639;SDS011;22600;48.186;11.526;2022-08-03T15:04:00;3.65;;;2.00;;
34639;SDS011;22600;48.186;11.526;2022-08-03T15:06:26;6.90;;;2.03;;
34639;SDS011;22600;48.186;11.526;2022-08-03T15:08:51;5.30;;;2.00;;
34639;SDS011;22600;48.186;11.526;2022-08-03T15:11:18;2.60;;;1.80;;
34639;SDS011;22600;48.186;11.526;2022-08-03T15:13:43;3.60;;;1.70;;
34639;SDS011;22600;48.186;11.526;2022-08-03T15:16:09;3.60;;;1.85;;
34639;SDS011;22600;48.186;11.526;2022-08-03T15:18:34;1.88;;;1.67;;
34639;SDS011;22600;48.186;11.526;2022-08-03T15:21:00;2.83;;;1.80;;
34639;SDS011;22600;48.186;11.526;2022-08-03T15:23:26;2.35;;;1.80;;
34639;SDS011;22600;48.186;11.526;2022-08-03T15:25:51;2.95;;;1.77;;
34639;SDS011;22600;48.186;11.526;2022-08-03T15:28:17;2.58;;;2.03;;
34639;SDS011;22600;48.186;11.526;2022-08-03T15:30:44;3.47;;;1.80;;
34639;SDS011;22600;48.186;11.526;2022-08-03T15:33:09;3.17;;;1.63;;